sensor_id;sensor_type;location;lat;lon;timestamp;P1;durP1;ratioP1;P2;durP2;ratioP2
29238;SDS011;16267;48.194;11.546;2024-01-27T00:01:39;2.75;;;0.90;;
29238;SDS011;16267;48.194;11.546;2024-01-27T00:04:05;4.50;;;1.50;;
29238;SDS011;16267;48.194;11.546;2024-01-27T00:06:30;0.82;;;0.50;;
29238;SDS011;16267;48.194;11.546;2024-01-27T00:08:56;8.13;;;0.80;;
29238;SDS011;16267;48.194;11.546;2024-01-27T00:11:22;2.35;;;1.00;;
29238;SDS011;16267;48.194;11.546;2024-01-27T00:13:50;1.83;;;0.65;;
29238;SDS011;16267;48.194;11.546;2024-01-27T00:16:16;0.82;;;0.73;;
29238;SDS011;16267;48.194;11.546;2024-01-27T00:18:43;2.03;;;0.73;;
29238;SDS011;16267;48.194;11.546;2024-01-27T00:21:08;4.20;;;0.85;;
29238;SDS011;16267;48.194;11.546;2024-01-27T00:23:34;2.00;;;1.05;;
29238;SDS011;16267;48.194;11.546;2024-01-27T00:26:00;1.88;;;0.60;;
29238;SDS011;16267;48.194;11.546;2024-01-27T00:28:26;6.72;;;0.82;;
29238;SDS011;16267;48.194;11.546;2024-01-27T00:30:52;2.75;;;0.90;;
29238;SDS011;16267;48.194;11.546;2024-01-27T00:33:18;1.48;;;0.70;;
29238;SDS011;16267;48.194;11.546;2024-01-27T00:35:44;1.27;;;0.85;;
29238;SDS011;16267;48.194;11.546;2024-01-27T00:38:10;1.17;;;0.80;;
29238;SDS011;16267;48.194;11.546;2024-01-27T00:40:35;2.08;;;0.90;;
29238;SDS011;16267;48.194;11.546;2024-01-27T00:43:04;2.55;;;0.85;;
29238;SDS011;16267;48.194;11.546;2024-01-27T00:45:30;1.23;;;0.77;;
29238;SDS011;16267;48.194;11.546;2024-01-27T00:47:57;1.95;;;1.33;;
29238;SDS011;16267;48.194;11.546;2024-01-27T00:50:23;1.52;;;0.70;;
29238;SDS011;16267;48.194;11.546;2024-01-27T00:52:49;2.47;;;0.75;;
29238;SDS011;16267;48.194;11.546;2024-01-27T00:55:14;0.95;;;0.75;;
29238;SDS011;16267;48.194;11.546;2024-01-27T00:57:40;6.13;;;1.05;;
29238;SDS011;16267;48.194;11.546;2024-01-27T01:00:07;6.10;;;1.05;;
29238;SDS011;16267;48.194;11.546;2024-01-27T01:02:34;2.42;;;1.25;;
29238;SDS011;16267;48.194;11.546;2024-01-27T01:05:02;2.65;;;1.40;;
29238;SDS011;16267;48.194;11.546;2024-01-27T01:07:29;2.42;;;0.70;;
29238;SDS011;16267;48.194;11.546;2024-01-27T01:09:55;6.15;;;1.33;;
29238;SDS011;16267;48.194;11.546;2024-01-27T01:12:21;2.00;;;0.90;;
29238;SDS011;16267;48.194;11.546;2024-01-27T01:14:47;4.20;;;1.00;;
29238;SDS011;16267;48.194;11.546;2024-01-27T01:17:13;2.22;;;1.38;;
29238;SDS011;16267;48.194;11.546;2024-01-27T01:19:40;1.63;;;0.80;;
29238;SDS011;16267;48.194;11.546;2024-01-27T01:22:06;1.98;;;0.90;;
29238;SDS011;16267;48.194;11.546;2024-01-27T01:24:32;2.22;;;1.08;;
29238;SDS011;16267;48.194;11.546;2024-01-27T01:26:58;4.78;;;1.10;;
29238;SDS011;16267;48.194;11.546;2024-01-27T01:29:25;2.08;;;0.90;;
29238;SDS011;16267;48.194;11.546;2024-01-27T01:31:51;2.28;;;1.08;;
29238;SDS011;16267;48.194;11.546;2024-01-27T01:34:18;4.60;;;1.17;;
29238;SDS011;16267;48.194;11.546;2024-01-27T01:36:43;3.45;;;1.10;;
29238;SDS011;16267;48.194;11.546;2024-01-27T01:39:10;1.73;;;0.90;;
29238;SDS011;16267;48.194;11.546;2024-01-27T01:41:38;5.28;;;1.13;;
29238;SDS011;16267;48.194;11.546;2024-01-27T01:44:04;3.45;;;0.90;;
29238;SDS011;16267;48.194;11.546;2024-01-27T01:46:31;1.30;;;0.80;;
29238;SDS011;16267;48.194;11.546;2024-01-27T01:48:57;3.45;;;0.95;;
29238;SDS011;16267;48.194;11.546;2024-01-27T01:51:23;0.57;;;0.57;;
29238;SDS011;16267;48.194;11.546;2024-01-27T01:53:51;6.20;;;1.48;;
29238;SDS011;16267;48.194;11.546;2024-01-27T01:56:23;0.90;;;0.65;;
29238;SDS011;16267;48.194;11.546;2024-01-27T01:58:49;1.92;;;1.00;;
29238;SDS011;16267;48.194;11.546;2024-01-27T02:01:18;2.25;;;0.93;;
29238;SDS011;16267;48.194;11.546;2024-01-27T02:03:55;2.03;;;0.82;;
29238;SDS011;16267;48.194;11.546;2024-01-27T02:06:22;4.68;;;0.93;;
29238;SDS011;16267;48.194;11.546;2024-01-27T02:08:49;1.23;;;0.80;;
29238;SDS011;16267;48.194;11.546;2024-01-27T02:11:15;3.83;;;0.68;;
29238;SDS011;16267;48.194;11.546;2024-01-27T02:13:42;3.95;;;0.85;;
29238;SDS011;16267;48.194;11.546;2024-01-27T02:16:09;2.72;;;1.17;;
29238;SDS011;16267;48.194;11.546;2024-01-27T02:18:34;2.97;;;1.05;;
29238;SDS011;16267;48.194;11.546;2024-01-27T02:21:00;1.90;;;1.08;;
29238;SDS011;16267;48.194;11.546;2024-01-27T02:23:26;2.85;;;0.90;;
29238;SDS011;16267;48.194;11.546;2024-01-27T02:25:52;3.58;;;0.90;;
29238;SDS011;16267;48.194;11.546;2024-01-27T02:28:18;4.38;;;1.10;;
29238;SDS011;16267;48.194;11.546;2024-01-27T02:30:44;1.23;;;0.77;;
29238;SDS011;16267;48.194;11.546;2024-01-27T02:33:10;2.50;;;1.10;;
29238;SDS011;16267;48.194;11.546;2024-01-27T02:35:35;1.60;;;0.82;;
29238;SDS011;16267;48.194;11.546;2024-01-27T02:38:01;1.15;;;0.80;;
29238;SDS011;16267;48.194;11.546;2024-01-27T02:40:27;4.05;;;1.02;;
29238;SDS011;16267;48.194;11.546;2024-01-27T02:42:53;2.30;;;0.95;;
29238;SDS011;16267;48.194;11.546;2024-01-27T02:45:19;8.10;;;1.05;;
29238;SDS011;16267;48.194;11.546;2024-01-27T02:47:44;1.50;;;0.70;;
29238;SDS011;16267;48.194;11.546;2024-01-27T02:50:10;1.13;;;1.02;;
29238;SDS011;16267;48.194;11.546;2024-01-27T02:52:36;1.73;;;0.70;;
29238;SDS011;16267;48.194;11.546;2024-01-27T02:55:02;8.00;;;1.05;;
29238;SDS011;16267;48.194;11.546;2024-01-27T02:57:28;1.67;;;0.50;;
29238;SDS011;16267;48.194;11.546;2024-01-27T02:59:54;1.30;;;0.75;;
29238;SDS011;16267;48.194;11.546;2024-01-27T03:02:20;2.25;;;0.70;;
29238;SDS011;16267;48.194;11.546;2024-01-27T03:04:46;3.45;;;1.02;;
29238;SDS011;16267;48.194;11.546;2024-01-27T03:07:12;8.15;;;3.28;;
29238;SDS011;16267;48.194;11.546;2024-01-27T03:09:38;2.50;;;0.90;;
29238;SDS011;16267;48.194;11.546;2024-01-27T03:12:04;1.58;;;0.80;;
29238;SDS011;16267;48.194;11.546;2024-01-27T03:14:30;1.13;;;0.70;;
29238;SDS011;16267;48.194;11.546;2024-01-27T03:16:55;1.42;;;1.33;;
29238;SDS011;16267;48.194;11.546;2024-01-27T03:19:21;2.47;;;0.85;;
29238;SDS011;16267;48.194;11.546;2024-01-27T03:21:47;2.97;;;1.42;;
29238;SDS011;16267;48.194;11.546;2024-01-27T03:24:13;1.70;;;0.70;;
29238;SDS011;16267;48.194;11.546;2024-01-27T03:26:38;1.10;;;0.63;;
29238;SDS011;16267;48.194;11.546;2024-01-27T03:29:04;1.42;;;0.82;;
29238;SDS011;16267;48.194;11.546;2024-01-27T03:31:33;1.42;;;0.70;;
29238;SDS011;16267;48.194;11.546;2024-01-27T03:34:00;1.15;;;0.70;;
29238;SDS011;16267;48.194;11.546;2024-01-27T03:36:26;1.63;;;1.05;;
29238;SDS011;16267;48.194;11.546;2024-01-27T03:38:53;4.00;;;0.95;;
29238;SDS011;16267;48.194;11.546;2024-01-27T03:41:20;7.90;;;0.90;;
29238;SDS011;16267;48.194;11.546;2024-01-27T03:43:46;4.57;;;0.93;;
29238;SDS011;16267;48.194;11.546;2024-01-27T03:46:12;4.28;;;1.30;;
29238;SDS011;16267;48.194;11.546;2024-01-27T03:48:38;4.28;;;1.20;;
29238;SDS011;16267;48.194;11.546;2024-01-27T03:51:03;4.30;;;1.10;;
29238;SDS011;16267;48.194;11.546;2024-01-27T03:53:29;0.98;;;0.68;;
29238;SDS011;16267;48.194;11.546;2024-01-27T03:55:55;2.25;;;0.88;;
29238;SDS011;16267;48.194;11.546;2024-01-27T03:58:27;2.17;;;1.25;;
29238;SDS011;16267;48.194;11.546;2024-01-27T04:00:53;1.45;;;0.98;;
29238;SDS011;16267;48.194;11.546;2024-01-27T04:03:19;1.98;;;0.80;;
29238;SDS011;16267;48.194;11.546;2024-01-27T04:05:45;3.88;;;0.90;;
29238;SDS011;16267;48.194;11.546;2024-01-27T04:08:11;1.60;;;0.95;;
29238;SDS011;16267;48.194;11.546;2024-01-27T04:10:37;5.60;;;1.90;;
29238;SDS011;16267;48.194;11.546;2024-01-27T04:13:03;1.90;;;1.10;;
29238;SDS011;16267;48.194;11.546;2024-01-27T04:15:29;2.67;;;0.73;;
29238;SDS011;16267;48.194;11.546;2024-01-27T04:17:55;0.93;;;0.77;;
29238;SDS011;16267;48.194;11.546;2024-01-27T04:20:21;0.85;;;0.57;;
29238;SDS011;16267;48.194;11.546;2024-01-27T04:22:47;2.92;;;0.98;;
29238;SDS011;16267;48.194;11.546;2024-01-27T04:25:13;3.17;;;1.17;;
29238;SDS011;16267;48.194;11.546;2024-01-27T04:27:38;5.57;;;1.00;;
29238;SDS011;16267;48.194;11.546;2024-01-27T04:30:07;1.02;;;0.68;;
29238;SDS011;16267;48.194;11.546;2024-01-27T04:32:34;0.82;;;0.70;;
29238;SDS011;16267;48.194;11.546;2024-01-27T04:35:00;5.50;;;1.02;;
29238;SDS011;16267;48.194;11.546;2024-01-27T04:37:26;4.53;;;1.40;;
29238;SDS011;16267;48.194;11.546;2024-01-27T04:39:52;2.83;;;1.10;;
29238;SDS011;16267;48.194;11.546;2024-01-27T04:42:18;3.88;;;1.30;;
29238;SDS011;16267;48.194;11.546;2024-01-27T04:44:43;2.38;;;1.08;;
29238;SDS011;16267;48.194;11.546;2024-01-27T04:47:09;2.45;;;1.08;;
29238;SDS011;16267;48.194;11.546;2024-01-27T04:49:35;6.80;;;1.08;;
29238;SDS011;16267;48.194;11.546;2024-01-27T04:52:00;2.88;;;1.25;;
29238;SDS011;16267;48.194;11.546;2024-01-27T04:54:26;1.83;;;0.70;;
29238;SDS011;16267;48.194;11.546;2024-01-27T04:56:52;2.30;;;0.90;;
29238;SDS011;16267;48.194;11.546;2024-01-27T04:59:18;1.75;;;1.05;;
29238;SDS011;16267;48.194;11.546;2024-01-27T05:01:44;4.07;;;0.70;;
29238;SDS011;16267;48.194;11.546;2024-01-27T05:04:11;9.65;;;1.40;;
29238;SDS011;16267;48.194;11.546;2024-01-27T05:06:37;4.65;;;1.38;;
29238;SDS011;16267;48.194;11.546;2024-01-27T05:09:04;2.05;;;1.02;;
29238;SDS011;16267;48.194;11.546;2024-01-27T05:11:33;2.42;;;1.02;;
29238;SDS011;16267;48.194;11.546;2024-01-27T05:13:59;2.33;;;0.82;;
29238;SDS011;16267;48.194;11.546;2024-01-27T05:16:25;1.15;;;0.75;;
29238;SDS011;16267;48.194;11.546;2024-01-27T05:18:52;1.75;;;0.80;;
29238;SDS011;16267;48.194;11.546;2024-01-27T05:21:18;2.38;;;1.05;;
29238;SDS011;16267;48.194;11.546;2024-01-27T05:23:44;1.85;;;0.88;;
29238;SDS011;16267;48.194;11.546;2024-01-27T05:26:09;2.53;;;1.02;;
29238;SDS011;16267;48.194;11.546;2024-01-27T05:28:36;2.45;;;1.15;;
29238;SDS011;16267;48.194;11.546;2024-01-27T05:31:06;1.60;;;1.42;;
29238;SDS011;16267;48.194;11.546;2024-01-27T05:33:33;2.28;;;1.00;;
29238;SDS011;16267;48.194;11.546;2024-01-27T05:35:59;6.40;;;0.98;;
29238;SDS011;16267;48.194;11.546;2024-01-27T05:38:25;7.75;;;1.60;;
29238;SDS011;16267;48.194;11.546;2024-01-27T05:40:51;7.53;;;1.25;;
29238;SDS011;16267;48.194;11.546;2024-01-27T05:43:17;3.00;;;1.15;;
29238;SDS011;16267;48.194;11.546;2024-01-27T05:45:43;4.70;;;1.45;;
29238;SDS011;16267;48.194;11.546;2024-01-27T05:48:10;6.18;;;1.80;;
29238;SDS011;16267;48.194;11.546;2024-01-27T05:50:36;5.93;;;1.73;;
29238;SDS011;16267;48.194;11.546;2024-01-27T05:53:02;6.85;;;1.88;;
29238;SDS011;16267;48.194;11.546;2024-01-27T05:55:27;6.90;;;2.13;;
29238;SDS011;16267;48.194;11.546;2024-01-27T05:57:54;6.68;;;1.85;;
29238;SDS011;16267;48.194;11.546;2024-01-27T06:00:21;4.55;;;2.05;;
29238;SDS011;16267;48.194;11.546;2024-01-27T06:02:47;4.30;;;2.17;;
29238;SDS011;16267;48.194;11.546;2024-01-27T06:05:14;4.65;;;2.15;;
29238;SDS011;16267;48.194;11.546;2024-01-27T06:07:40;4.95;;;1.90;;
29238;SDS011;16267;48.194;11.546;2024-01-27T06:10:09;2.50;;;1.50;;
29238;SDS011;16267;48.194;11.546;2024-01-27T06:12:35;4.55;;;1.58;;
29238;SDS011;16267;48.194;11.546;2024-01-27T06:15:03;4.07;;;1.55;;
29238;SDS011;16267;48.194;11.546;2024-01-27T06:17:30;3.28;;;1.60;;
29238;SDS011;16267;48.194;11.546;2024-01-27T06:19:56;5.65;;;1.80;;
29238;SDS011;16267;48.194;11.546;2024-01-27T06:22:21;6.47;;;2.08;;
29238;SDS011;16267;48.194;11.546;2024-01-27T06:24:47;2.17;;;1.60;;
29238;SDS011;16267;48.194;11.546;2024-01-27T06:27:13;2.30;;;1.35;;
29238;SDS011;16267;48.194;11.546;2024-01-27T06:29:38;6.00;;;1.33;;
29238;SDS011;16267;48.194;11.546;2024-01-27T06:32:05;6.25;;;1.45;;
29238;SDS011;16267;48.194;11.546;2024-01-27T06:34:31;2.45;;;1.38;;
29238;SDS011;16267;48.194;11.546;2024-01-27T06:36:58;2.05;;;1.40;;
29238;SDS011;16267;48.194;11.546;2024-01-27T06:39:24;8.60;;;1.60;;
29238;SDS011;16267;48.194;11.546;2024-01-27T06:41:49;3.25;;;1.58;;
29238;SDS011;16267;48.194;11.546;2024-01-27T06:44:15;3.83;;;1.75;;
29238;SDS011;16267;48.194;11.546;2024-01-27T06:46:41;3.15;;;1.35;;
29238;SDS011;16267;48.194;11.546;2024-01-27T06:49:08;2.97;;;1.50;;
29238;SDS011;16267;48.194;11.546;2024-01-27T06:51:33;5.43;;;2.00;;
29238;SDS011;16267;48.194;11.546;2024-01-27T06:53:59;4.07;;;1.75;;
29238;SDS011;16267;48.194;11.546;2024-01-27T06:56:25;1.25;;;0.98;;
29238;SDS011;16267;48.194;11.546;2024-01-27T06:58:50;2.35;;;1.08;;
29238;SDS011;16267;48.194;11.546;2024-01-27T07:01:16;4.53;;;1.45;;
29238;SDS011;16267;48.194;11.546;2024-01-27T07:03:42;5.78;;;1.20;;
29238;SDS011;16267;48.194;11.546;2024-01-27T07:06:09;5.10;;;1.42;;
29238;SDS011;16267;48.194;11.546;2024-01-27T07:08:35;3.83;;;1.13;;
29238;SDS011;16267;48.194;11.546;2024-01-27T07:11:01;4.32;;;1.20;;
29238;SDS011;16267;48.194;11.546;2024-01-27T07:13:27;4.30;;;1.20;;
29238;SDS011;16267;48.194;11.546;2024-01-27T07:15:54;2.15;;;1.70;;
29238;SDS011;16267;48.194;11.546;2024-01-27T07:18:24;2.75;;;1.27;;
29238;SDS011;16267;48.194;11.546;2024-01-27T07:20:50;3.05;;;1.48;;
29238;SDS011;16267;48.194;11.546;2024-01-27T07:23:16;3.58;;;1.23;;
29238;SDS011;16267;48.194;11.546;2024-01-27T07:25:42;6.53;;;1.60;;
29238;SDS011;16267;48.194;11.546;2024-01-27T07:28:09;4.32;;;1.60;;
29238;SDS011;16267;48.194;11.546;2024-01-27T07:30:35;1.52;;;0.90;;
29238;SDS011;16267;48.194;11.546;2024-01-27T07:33:01;3.67;;;1.25;;
29238;SDS011;16267;48.194;11.546;2024-01-27T07:35:27;2.10;;;1.20;;
29238;SDS011;16267;48.194;11.546;2024-01-27T07:37:53;2.33;;;1.15;;
29238;SDS011;16267;48.194;11.546;2024-01-27T07:40:19;3.20;;;1.73;;
29238;SDS011;16267;48.194;11.546;2024-01-27T07:42:45;5.65;;;1.02;;
29238;SDS011;16267;48.194;11.546;2024-01-27T07:45:10;8.52;;;1.30;;
29238;SDS011;16267;48.194;11.546;2024-01-27T07:47:36;7.25;;;1.45;;
29238;SDS011;16267;48.194;11.546;2024-01-27T07:50:03;1.92;;;1.27;;
29238;SDS011;16267;48.194;11.546;2024-01-27T07:52:29;4.30;;;1.40;;
29238;SDS011;16267;48.194;11.546;2024-01-27T07:54:55;1.80;;;1.17;;
29238;SDS011;16267;48.194;11.546;2024-01-27T07:57:21;2.70;;;1.20;;
29238;SDS011;16267;48.194;11.546;2024-01-27T07:59:47;10.20;;;1.30;;
29238;SDS011;16267;48.194;11.546;2024-01-27T08:02:13;2.95;;;1.55;;
29238;SDS011;16267;48.194;11.546;2024-01-27T08:04:38;3.83;;;1.45;;
29238;SDS011;16267;48.194;11.546;2024-01-27T08:07:04;2.45;;;1.42;;
29238;SDS011;16267;48.194;11.546;2024-01-27T08:09:34;4.38;;;1.83;;
29238;SDS011;16267;48.194;11.546;2024-01-27T08:12:01;5.40;;;1.88;;
29238;SDS011;16267;48.194;11.546;2024-01-27T08:14:30;3.95;;;1.95;;
29238;SDS011;16267;48.194;11.546;2024-01-27T08:16:58;3.87;;;1.50;;
29238;SDS011;16267;48.194;11.546;2024-01-27T08:19:24;14.32;;;1.80;;
29238;SDS011;16267;48.194;11.546;2024-01-27T08:21:50;5.07;;;1.95;;
29238;SDS011;16267;48.194;11.546;2024-01-27T08:24:16;11.52;;;2.15;;
29238;SDS011;16267;48.194;11.546;2024-01-27T08:26:42;6.05;;;2.47;;
29238;SDS011;16267;48.194;11.546;2024-01-27T08:29:08;5.38;;;2.40;;
29238;SDS011;16267;48.194;11.546;2024-01-27T08:31:34;6.75;;;2.13;;
29238;SDS011;16267;48.194;11.546;2024-01-27T08:34:00;5.22;;;1.70;;
29238;SDS011;16267;48.194;11.546;2024-01-27T08:36:26;13.73;;;2.05;;
29238;SDS011;16267;48.194;11.546;2024-01-27T08:38:51;6.78;;;2.33;;
29238;SDS011;16267;48.194;11.546;2024-01-27T08:41:18;7.10;;;2.08;;
29238;SDS011;16267;48.194;11.546;2024-01-27T08:43:43;8.00;;;2.63;;
29238;SDS011;16267;48.194;11.546;2024-01-27T08:46:09;3.17;;;1.70;;
29238;SDS011;16267;48.194;11.546;2024-01-27T08:48:37;3.83;;;1.73;;
29238;SDS011;16267;48.194;11.546;2024-01-27T08:51:03;6.05;;;2.33;;
29238;SDS011;16267;48.194;11.546;2024-01-27T08:53:29;3.58;;;1.63;;
29238;SDS011;16267;48.194;11.546;2024-01-27T08:55:55;4.90;;;2.28;;
29238;SDS011;16267;48.194;11.546;2024-01-27T08:58:21;5.82;;;2.35;;
29238;SDS011;16267;48.194;11.546;2024-01-27T09:00:46;8.70;;;1.88;;
29238;SDS011;16267;48.194;11.546;2024-01-27T09:03:12;5.88;;;2.30;;
29238;SDS011;16267;48.194;11.546;2024-01-27T09:05:39;7.68;;;2.08;;
29238;SDS011;16267;48.194;11.546;2024-01-27T09:08:08;7.13;;;2.75;;
29238;SDS011;16267;48.194;11.546;2024-01-27T09:10:34;4.43;;;2.10;;
29238;SDS011;16267;48.194;11.546;2024-01-27T09:13:00;4.07;;;2.22;;
29238;SDS011;16267;48.194;11.546;2024-01-27T09:15:25;3.65;;;2.17;;
29238;SDS011;16267;48.194;11.546;2024-01-27T09:17:51;4.63;;;1.92;;
29238;SDS011;16267;48.194;11.546;2024-01-27T09:20:17;8.77;;;3.20;;
29238;SDS011;16267;48.194;11.546;2024-01-27T09:22:43;3.42;;;2.10;;
29238;SDS011;16267;48.194;11.546;2024-01-27T09:25:09;7.68;;;2.22;;
29238;SDS011;16267;48.194;11.546;2024-01-27T09:27:35;5.60;;;1.98;;
29238;SDS011;16267;48.194;11.546;2024-01-27T09:30:02;5.43;;;2.13;;
29238;SDS011;16267;48.194;11.546;2024-01-27T09:32:28;4.97;;;1.55;;
29238;SDS011;16267;48.194;11.546;2024-01-27T09:34:54;4.80;;;2.10;;
29238;SDS011;16267;48.194;11.546;2024-01-27T09:37:19;6.15;;;2.28;;
29238;SDS011;16267;48.194;11.546;2024-01-27T09:39:45;7.40;;;1.83;;
29238;SDS011;16267;48.194;11.546;2024-01-27T09:42:12;6.85;;;2.20;;
29238;SDS011;16267;48.194;11.546;2024-01-27T09:44:44;3.97;;;1.48;;
29238;SDS011;16267;48.194;11.546;2024-01-27T09:47:15;6.10;;;1.73;;
29238;SDS011;16267;48.194;11.546;2024-01-27T09:49:41;2.67;;;1.40;;
29238;SDS011;16267;48.194;11.546;2024-01-27T09:52:08;7.55;;;1.75;;
29238;SDS011;16267;48.194;11.546;2024-01-27T09:54:34;2.55;;;1.60;;
29238;SDS011;16267;48.194;11.546;2024-01-27T09:57:01;9.32;;;1.90;;
29238;SDS011;16267;48.194;11.546;2024-01-27T09:59:27;4.80;;;1.60;;
29238;SDS011;16267;48.194;11.546;2024-01-27T10:01:54;4.65;;;1.88;;
29238;SDS011;16267;48.194;11.546;2024-01-27T10:04:23;8.60;;;1.98;;
29238;SDS011;16267;48.194;11.546;2024-01-27T10:06:50;4.30;;;1.77;;
29238;SDS011;16267;48.194;11.546;2024-01-27T10:09:18;2.72;;;1.40;;
29238;SDS011;16267;48.194;11.546;2024-01-27T10:11:47;7.47;;;1.67;;
29238;SDS011;16267;48.194;11.546;2024-01-27T10:14:13;3.95;;;1.70;;
29238;SDS011;16267;48.194;11.546;2024-01-27T10:16:42;5.60;;;1.50;;
29238;SDS011;16267;48.194;11.546;2024-01-27T10:19:19;2.55;;;1.30;;
29238;SDS011;16267;48.194;11.546;2024-01-27T10:21:46;5.70;;;1.55;;
29238;SDS011;16267;48.194;11.546;2024-01-27T10:24:13;6.13;;;1.92;;
29238;SDS011;16267;48.194;11.546;2024-01-27T10:26:40;4.47;;;1.73;;
29238;SDS011;16267;48.194;11.546;2024-01-27T10:29:05;7.88;;;2.08;;
29238;SDS011;16267;48.194;11.546;2024-01-27T10:31:34;3.95;;;1.63;;
29238;SDS011;16267;48.194;11.546;2024-01-27T10:34:01;8.15;;;2.30;;
29238;SDS011;16267;48.194;11.546;2024-01-27T10:36:38;4.20;;;1.70;;
29238;SDS011;16267;48.194;11.546;2024-01-27T10:41:48;4.80;;;1.70;;
29238;SDS011;16267;48.194;11.546;2024-01-27T10:44:15;5.78;;;2.28;;
29238;SDS011;16267;48.194;11.546;2024-01-27T10:46:47;8.73;;;1.80;;
29238;SDS011;16267;48.194;11.546;2024-01-27T10:49:14;8.27;;;2.00;;
29238;SDS011;16267;48.194;11.546;2024-01-27T10:51:46;5.07;;;1.80;;
29238;SDS011;16267;48.194;11.546;2024-01-27T10:54:24;7.47;;;2.20;;
29238;SDS011;16267;48.194;11.546;2024-01-27T10:56:52;3.50;;;1.60;;
29238;SDS011;16267;48.194;11.546;2024-01-27T10:59:21;6.18;;;1.90;;
29238;SDS011;16267;48.194;11.546;2024-01-27T11:01:50;5.68;;;2.10;;
29238;SDS011;16267;48.194;11.546;2024-01-27T11:04:19;3.17;;;1.90;;
29238;SDS011;16267;48.194;11.546;2024-01-27T11:06:49;5.28;;;1.88;;
29238;SDS011;16267;48.194;11.546;2024-01-27T11:09:15;2.75;;;1.40;;
29238;SDS011;16267;48.194;11.546;2024-01-27T11:11:44;4.03;;;1.77;;
29238;SDS011;16267;48.194;11.546;2024-01-27T11:14:11;3.25;;;1.70;;
29238;SDS011;16267;48.194;11.546;2024-01-27T11:16:37;4.82;;;2.15;;
29238;SDS011;16267;48.194;11.546;2024-01-27T11:19:12;5.45;;;1.60;;
29238;SDS011;16267;48.194;11.546;2024-01-27T11:21:38;7.00;;;1.88;;
29238;SDS011;16267;48.194;11.546;2024-01-27T11:24:14;4.85;;;1.67;;
29238;SDS011;16267;48.194;11.546;2024-01-27T11:26:41;8.90;;;2.30;;
29238;SDS011;16267;48.194;11.546;2024-01-27T11:29:07;3.65;;;2.00;;
29238;SDS011;16267;48.194;11.546;2024-01-27T11:31:44;7.68;;;1.70;;
29238;SDS011;16267;48.194;11.546;2024-01-27T11:34:11;6.00;;;1.50;;
29238;SDS011;16267;48.194;11.546;2024-01-27T11:36:44;6.03;;;2.10;;
29238;SDS011;16267;48.194;11.546;2024-01-27T11:39:23;4.45;;;1.52;;
29238;SDS011;16267;48.194;11.546;2024-01-27T11:42:06;3.90;;;1.10;;
29238;SDS011;16267;48.194;11.546;2024-01-27T11:44:34;4.97;;;1.42;;
29238;SDS011;16267;48.194;11.546;2024-01-27T11:47:01;1.48;;;1.00;;
29238;SDS011;16267;48.194;11.546;2024-01-27T11:49:28;6.43;;;1.08;;
29238;SDS011;16267;48.194;11.546;2024-01-27T11:51:54;2.22;;;1.23;;
29238;SDS011;16267;48.194;11.546;2024-01-27T11:54:20;3.60;;;1.65;;
29238;SDS011;16267;48.194;11.546;2024-01-27T11:56:45;1.88;;;1.00;;
29238;SDS011;16267;48.194;11.546;2024-01-27T11:59:11;6.30;;;1.65;;
29238;SDS011;16267;48.194;11.546;2024-01-27T12:01:37;1.70;;;1.10;;
29238;SDS011;16267;48.194;11.546;2024-01-27T12:04:04;4.38;;;1.75;;
29238;SDS011;16267;48.194;11.546;2024-01-27T12:06:30;2.40;;;1.20;;
29238;SDS011;16267;48.194;11.546;2024-01-27T12:08:57;4.35;;;1.60;;
29238;SDS011;16267;48.194;11.546;2024-01-27T12:11:26;3.10;;;1.40;;
29238;SDS011;16267;48.194;11.546;2024-01-27T12:13:52;5.20;;;1.77;;
29238;SDS011;16267;48.194;11.546;2024-01-27T12:16:18;4.32;;;1.90;;
29238;SDS011;16267;48.194;11.546;2024-01-27T12:18:47;6.05;;;1.55;;
29238;SDS011;16267;48.194;11.546;2024-01-27T12:21:21;6.70;;;1.70;;
29238;SDS011;16267;48.194;11.546;2024-01-27T12:23:53;5.82;;;1.52;;
29238;SDS011;16267;48.194;11.546;2024-01-27T12:26:28;3.97;;;1.30;;
29238;SDS011;16267;48.194;11.546;2024-01-27T12:28:55;3.42;;;1.70;;
29238;SDS011;16267;48.194;11.546;2024-01-27T12:31:25;8.20;;;1.27;;
29238;SDS011;16267;48.194;11.546;2024-01-27T12:33:52;5.20;;;1.33;;
29238;SDS011;16267;48.194;11.546;2024-01-27T12:36:21;5.20;;;1.52;;
29238;SDS011;16267;48.194;11.546;2024-01-27T12:38:57;6.85;;;1.65;;
29238;SDS011;16267;48.194;11.546;2024-01-27T12:41:28;3.20;;;1.45;;
29238;SDS011;16267;48.194;11.546;2024-01-27T12:43:54;2.47;;;1.38;;
29238;SDS011;16267;48.194;11.546;2024-01-27T12:46:21;5.50;;;2.00;;
29238;SDS011;16267;48.194;11.546;2024-01-27T12:48:46;3.72;;;1.52;;
29238;SDS011;16267;48.194;11.546;2024-01-27T12:51:13;5.38;;;1.40;;
29238;SDS011;16267;48.194;11.546;2024-01-27T12:53:39;6.95;;;2.03;;
29238;SDS011;16267;48.194;11.546;2024-01-27T12:56:08;7.78;;;1.50;;
29238;SDS011;16267;48.194;11.546;2024-01-27T12:58:38;7.07;;;1.50;;
29238;SDS011;16267;48.194;11.546;2024-01-27T13:01:05;3.17;;;1.27;;
29238;SDS011;16267;48.194;11.546;2024-01-27T13:03:32;3.35;;;1.60;;
29238;SDS011;16267;48.194;11.546;2024-01-27T13:05:58;3.67;;;1.58;;
29238;SDS011;16267;48.194;11.546;2024-01-27T13:08:24;2.67;;;1.73;;
29238;SDS011;16267;48.194;11.546;2024-01-27T13:10:50;2.25;;;1.27;;
29238;SDS011;16267;48.194;11.546;2024-01-27T13:13:16;7.07;;;1.15;;
29238;SDS011;16267;48.194;11.546;2024-01-27T13:15:42;3.15;;;1.17;;
29238;SDS011;16267;48.194;11.546;2024-01-27T13:18:08;5.75;;;1.00;;
29238;SDS011;16267;48.194;11.546;2024-01-27T13:20:38;2.95;;;1.45;;
29238;SDS011;16267;48.194;11.546;2024-01-27T13:23:05;4.53;;;1.63;;
29238;SDS011;16267;48.194;11.546;2024-01-27T13:25:32;7.70;;;1.23;;
29238;SDS011;16267;48.194;11.546;2024-01-27T13:27:58;8.50;;;1.45;;
29238;SDS011;16267;48.194;11.546;2024-01-27T13:30:24;4.15;;;1.23;;
29238;SDS011;16267;48.194;11.546;2024-01-27T13:32:50;1.52;;;0.93;;
29238;SDS011;16267;48.194;11.546;2024-01-27T13:35:16;5.55;;;1.23;;
29238;SDS011;16267;48.194;11.546;2024-01-27T13:37:41;4.43;;;1.50;;
29238;SDS011;16267;48.194;11.546;2024-01-27T13:40:07;2.78;;;1.45;;
29238;SDS011;16267;48.194;11.546;2024-01-27T13:42:35;3.80;;;1.45;;
29238;SDS011;16267;48.194;11.546;2024-01-27T13:45:01;3.33;;;1.27;;
29238;SDS011;16267;48.194;11.546;2024-01-27T13:47:28;8.73;;;1.80;;
29238;SDS011;16267;48.194;11.546;2024-01-27T13:49:54;4.82;;;1.80;;
29238;SDS011;16267;48.194;11.546;2024-01-27T13:52:21;5.95;;;1.60;;
29238;SDS011;16267;48.194;11.546;2024-01-27T13:54:46;5.20;;;1.85;;
29238;SDS011;16267;48.194;11.546;2024-01-27T13:57:14;6.85;;;1.27;;
29238;SDS011;16267;48.194;11.546;2024-01-27T13:59:41;4.75;;;1.52;;
29238;SDS011;16267;48.194;11.546;2024-01-27T14:02:07;5.47;;;1.48;;
29238;SDS011;16267;48.194;11.546;2024-01-27T14:04:33;4.57;;;1.67;;
29238;SDS011;16267;48.194;11.546;2024-01-27T14:06:59;7.25;;;1.45;;
29238;SDS011;16267;48.194;11.546;2024-01-27T14:09:31;5.10;;;1.60;;
29238;SDS011;16267;48.194;11.546;2024-01-27T14:12:00;3.38;;;1.42;;
29238;SDS011;16267;48.194;11.546;2024-01-27T14:14:26;7.47;;;1.90;;
29238;SDS011;16267;48.194;11.546;2024-01-27T14:16:53;3.38;;;1.38;;
29238;SDS011;16267;48.194;11.546;2024-01-27T14:19:19;3.13;;;1.17;;
29238;SDS011;16267;48.194;11.546;2024-01-27T14:21:45;3.97;;;1.13;;
29238;SDS011;16267;48.194;11.546;2024-01-27T14:24:11;6.05;;;2.20;;
29238;SDS011;16267;48.194;11.546;2024-01-27T14:26:36;2.45;;;1.02;;
29238;SDS011;16267;48.194;11.546;2024-01-27T14:29:03;2.50;;;1.33;;
29238;SDS011;16267;48.194;11.546;2024-01-27T14:31:29;3.17;;;1.80;;
29238;SDS011;16267;48.194;11.546;2024-01-27T14:33:55;5.00;;;1.73;;